Aérodrome :
LOGIN :

S'inscrire | Disclaimer

   EN    FR    IT 

 










Légende :    VFR   VFR Marginal   IFR   IFR Intensif   IFR Très Intensif
Visi : 
Plafond : 
>= 8 km
>= 3000ft
5 à 8 km
1000 à 3000 ft
1500m à 5 km
500 à 1000 ft
800 à 1500m
200 à 500 ft
< 800m
< 200 ft
Symboles :   Orages  Brouillard  Fortes neiges  Fortes précipitations  Vent > 20 kt
SIGMETs :   Divers  Orages  Givrage  Turbulence  Onde Orograph.  Cendres Volcan.







- Altitude de l'aérodrome : 313 ft
- Code IATA : LEH
- Voir les cartes d'approche


LFOH - Le Havre Octeville

DERNIER METAR :
  • 220430Z AUTO 15004KT CAVOK 15/12 Q1012

METARs EXPIRÉS :
  • 220400Z AUTO 12003KT CAVOK 16/12 Q1012
  • 220330Z AUTO 11003KT 9000 NSC 16/12 Q1012
  • 220300Z AUTO 13007KT 100V160 CAVOK 16/13 Q1013
  • 220230Z AUTO 12005KT 080V150 9999 ///CB 16/13 Q1013
  • 220200Z AUTO 11006KT 080V140 9999 ///CB 16/13 Q1013

TAF TAF LFOH
Valide du 21 à 12h jusqu'au 22 à 12h UTC


211100Z 2112/2212 VRB03KT CAVOK
TEMPO 2119/2201 24020G35KT 4000 TSRA BKN050CB
PROB30
TEMPO 2119/2124 1500 TSGR
BECMG 2200/2203 16012KT
ATIS : +33 2 35 54 64 93
Pas de NOTAMs connus pour ce terrain.
1 SIGMET publié pour la FIR Paris (LFFF) :
 
Orages noyés dans la masse
LFFF SIGMET 2 VALID 220430/220600 LFPW
LFFF PARIS FIR/UIR EMBD TS FCST WI N4900 E00215 - N4945 E00245 - N4930 E00330 - N4900 E00315 - N4900 E00215 TOP FL340 MOV NE 20KT WKN=



MET'MAP, la Météo Aéronautique d'un coup d'oeil ! - Copyright ORBIFLY Décembre 2007 - Disclaimer

ORBIFLY MET'MAP TEAM :

Programmation & Développement : Alexandra Zaïnal
Conception & Développement : Baudouin d'Aumeries
Co-Programmation & Développement : Marc-Olivier Méhu
Soutien technique & logistique : Manuel Goepfert

Contact : metmap@orbifly.com




SOURCES & CREDITS :

   NOAA